Time;durP1;ratioP1;P1;durP2;ratioP2;P2;SDS_P1;SDS_P2;PMS_P1;PMS_P2;Temp;Humidity;BMP_temperature;BMP_pressure;BME280_temperature;BME280_humidity;BME280_pressure;Samples;Min_cycle;Max_cycle;Signal;HPM_P1;HPM_P2
2023/08/03 00:01:33;;;;;;;4.43;1.57;;;;;;;14.14;100.00;98750.78;7366367;19;20427;-44
2023/08/03 00:04:06;;;;;;;6.83;1.93;;;;;;;14.16;100.00;98755.09;7388679;19;20465;-44
2023/08/03 00:06:36;;;;;;;2.17;1.30;;;;;;;14.18;100.00;98747.31;7367851;19;20860;-43
2023/08/03 00:09:05;;;;;;;6.23;1.80;;;;;;;14.18;100.00;98745.59;7390603;19;20399;-45
2023/08/03 00:11:35;;;;;;;11.60;2.37;;;;;;;14.21;100.00;98738.66;7366571;19;20461;-47
2023/08/03 00:14:04;;;;;;;7.80;1.80;;;;;;;14.26;100.00;98739.50;7390217;19;20445;-44
2023/08/03 00:16:34;;;;;;;4.93;1.40;;;;;;;14.29;100.00;98736.88;7366989;19;20515;-44
2023/08/03 00:19:06;;;;;;;5.57;1.70;;;;;;;14.31;100.00;98732.56;7389067;19;20498;-44
2023/08/03 00:21:36;;;;;;;8.10;2.17;;;;;;;14.31;100.00;98737.75;7365683;19;20978;-44
2023/08/03 00:24:06;;;;;;;9.10;1.60;;;;;;;14.29;100.00;98731.69;7390237;19;20522;-49
2023/08/03 00:26:36;;;;;;;4.33;1.50;;;;;;;14.29;100.00;98736.88;7366789;19;20420;-45
2023/08/03 00:29:05;;;;;;;4.43;1.60;;;;;;;14.27;100.00;98730.84;7389310;19;20487;-45
2023/08/03 00:31:35;;;;;;;6.93;1.97;;;;;;;14.26;100.00;98739.50;7365336;19;20431;-44
2023/08/03 00:34:07;;;;;;;13.57;2.20;;;;;;;14.37;100.00;98729.06;7389273;19;20957;-46
2023/08/03 00:36:38;;;;;;;3.93;1.40;;;;;;;14.48;100.00;98729.88;7366625;19;20429;-44
2023/08/03 00:39:08;;;;;;;6.33;1.63;;;;;;;14.44;100.00;98730.75;7389073;19;20419;-44
2023/08/03 00:41:37;;;;;;;9.80;1.80;;;;;;;14.38;100.00;98726.47;7366296;19;21086;-45
2023/08/03 00:44:07;;;;;;;3.40;2.00;;;;;;;14.32;100.00;98713.53;7389966;19;20463;-46
2023/08/03 00:46:36;;;;;;;6.43;1.90;;;;;;;14.27;100.00;98702.31;7366865;19;20451;-45
2023/08/03 00:49:09;;;;;;;5.30;2.30;;;;;;;14.24;100.00;98697.16;7391616;19;20422;-43
2023/08/03 00:51:38;;;;;;;9.40;2.27;;;;;;;14.25;100.00;98694.53;7366083;19;20508;-45
2023/08/03 00:54:08;;;;;;;8.50;2.40;;;;;;;14.22;100.00;98693.72;7389164;19;20515;-44
2023/08/03 00:56:38;;;;;;;7.63;2.20;;;;;;;14.26;100.00;98680.69;7367309;19;20437;-46
2023/08/03 00:59:10;;;;;;;4.97;2.40;;;;;;;14.23;100.00;98679.88;7389998;19;20416;-48
2023/08/03 01:01:40;;;;;;;5.50;2.60;;;;;;;14.21;100.00;98671.25;7366037;19;20431;-45
2023/08/03 01:04:13;;;;;;;4.87;2.30;;;;;;;14.23;100.00;98674.69;7390289;19;20473;-46
2023/08/03 01:06:43;;;;;;;6.30;2.60;;;;;;;14.21;100.00;98673.84;7362294;19;20506;-45
2023/08/03 01:09:12;;;;;;;6.30;2.53;;;;;;;14.19;100.00;98676.44;7386850;19;20407;-46
2023/08/03 01:11:44;;;;;;;6.50;3.13;;;;;;;14.21;100.00;98673.84;7368074;19;20431;-48
2023/08/03 01:14:14;;;;;;;4.87;2.27;;;;;;;14.21;100.00;98666.94;7392983;19;20439;-45
2023/08/03 01:16:43;;;;;;;5.20;2.40;;;;;;;14.26;100.00;98653.94;7369536;19;20823;-45
2023/08/03 01:19:16;;;;;;;6.37;2.60;;;;;;;14.25;100.00;98654.81;7394087;19;20427;-46
2023/08/03 01:21:46;;;;;;;3.73;2.10;;;;;;;14.21;100.00;98650.50;7368416;19;20431;-45
2023/08/03 01:24:18;;;;;;;5.67;2.80;;;;;;;14.22;100.00;98645.31;7391909;19;20450;-49
2023/08/03 01:26:48;;;;;;;7.77;2.57;;;;;;;14.26;100.00;98635.78;7367640;19;20435;-44
2023/08/03 01:29:18;;;;;;;3.67;2.47;;;;;;;14.29;100.00;98633.13;7392193;19;20403;-45
2023/08/03 01:31:47;;;;;;;3.97;2.23;;;;;;;14.32;100.00;98635.72;7367388;19;20430;-45
2023/08/03 01:34:17;;;;;;;5.27;2.17;;;;;;;14.32;100.00;98627.94;7392964;19;20435;-46
2023/08/03 01:36:47;;;;;;;6.60;3.00;;;;;;;14.36;100.00;98623.59;7369208;19;20440;-43
2023/08/03 01:39:20;;;;;;;4.90;2.20;;;;;;;14.36;100.00;98618.41;7392707;19;20487;-45
2023/08/03 01:41:50;;;;;;;6.07;2.60;;;;;;;14.36;100.00;98619.25;7368496;19;20514;-44
2023/08/03 01:44:27;;;;;;;6.47;2.57;;;;;;;14.37;100.00;98622.72;7391717;19;20439;-45
2023/08/03 01:46:58;;;;;;;6.70;2.70;;;;;;;14.39;100.00;98628.75;7367774;19;20447;-42
2023/08/03 01:49:30;;;;;;;8.33;2.90;;;;;;;14.39;100.00;98620.97;7391554;19;20399;-45
2023/08/03 01:51:59;;;;;;;4.53;3.20;;;;;;;14.39;100.00;98628.75;7369025;19;20443;-44
2023/08/03 01:54:31;;;;;;;5.27;4.00;;;;;;;14.38;100.00;98622.72;7392070;19;20416;-46
2023/08/03 01:57:01;;;;;;;7.57;2.87;;;;;;;14.40;100.00;98620.09;7369276;19;20454;-45
2023/08/03 01:59:31;;;;;;;6.80;3.40;;;;;;;14.43;100.00;98625.25;7391139;19;20479;-47
2023/08/03 02:02:01;;;;;;;7.43;2.60;;;;;;;14.41;100.00;98629.59;7367701;19;20442;-45
2023/08/03 02:04:30;;;;;;;4.00;3.00;;;;;;;14.39;100.00;98628.75;7391171;19;20415;-44
2023/08/03 02:07:12;;;;;;;16.37;3.40;;;;;;;14.40;100.00;98636.53;7366312;19;20443;-44
2023/08/03 02:09:44;;;;;;;6.63;2.77;;;;;;;14.35;100.00;98633.09;7367246;19;20830;-45
2023/08/03 02:12:13;;;;;;;8.43;3.37;;;;;;;14.37;100.00;98630.50;7387246;19;20987;-46
2023/08/03 02:14:43;;;;;;;4.30;2.40;;;;;;;14.35;100.00;98629.66;7367507;19;20411;-44
2023/08/03 02:17:12;;;;;;;6.70;3.17;;;;;;;14.30;100.00;98625.34;7388849;19;20403;-44
2023/08/03 02:19:42;;;;;;;4.50;2.90;;;;;;;14.34;100.00;98630.50;7366915;19;20486;-43
2023/08/03 02:22:12;;;;;;;3.50;2.50;;;;;;;14.37;100.00;98617.53;7387575;19;20833;-46
2023/08/03 02:24:44;;;;;;;3.90;2.50;;;;;;;14.33;100.00;98624.47;7365480;19;20407;-45
2023/08/03 02:27:13;;;;;;;12.53;2.80;;;;;;;14.31;100.00;98623.63;7392926;19;20428;-46
2023/08/03 02:29:43;;;;;;;5.23;2.90;;;;;;;14.32;100.00;98617.56;7372886;19;20866;-44
2023/08/03 02:32:12;;;;;;;5.73;3.13;;;;;;;14.35;100.00;98621.88;7396947;19;20406;-47
2023/08/03 02:34:42;;;;;;;7.37;2.93;;;;;;;14.32;100.00;98622.75;7373429;19;20407;-47
2023/08/03 02:37:12;;;;;;;4.13;2.83;;;;;;;14.35;100.00;98622.72;7395582;19;20498;-43
2023/08/03 02:39:44;;;;;;;8.87;3.53;;;;;;;14.37;100.00;98622.72;7373405;19;20422;-43
2023/08/03 02:42:13;;;;;;;6.53;3.00;;;;;;;14.39;100.00;98621.84;7393909;19;20412;-45
2023/08/03 02:44:43;;;;;;;6.83;2.67;;;;;;;14.40;100.00;98623.56;7373068;19;20407;-44
2023/08/03 02:47:13;;;;;;;6.33;2.60;;;;;;;14.43;100.00;98622.66;7394830;19;20424;-46
2023/08/03 02:49:42;;;;;;;8.50;3.83;;;;;;;14.44;100.00;98627.84;7372825;19;20413;-44
2023/08/03 02:52:12;;;;;;;3.13;2.47;;;;;;;14.42;100.00;98624.38;7393779;19;20403;-45
2023/08/03 02:54:44;;;;;;;8.43;3.20;;;;;;;14.43;100.00;98620.94;7372996;19;20419;-46
2023/08/03 02:57:14;;;;;;;7.13;2.90;;;;;;;14.47;100.00;98623.50;7395011;19;20419;-46
2023/08/03 02:59:43;;;;;;;4.10;2.90;;;;;;;14.47;100.00;98624.38;7371495;19;20475;-48
2023/08/03 03:02:13;;;;;;;7.80;3.20;;;;;;;14.43;100.00;98615.75;7393485;19;20446;-48
2023/08/03 03:04:43;;;;;;;10.03;3.00;;;;;;;14.41;100.00;98625.25;7372255;19;21305;-46
2023/08/03 03:07:12;;;;;;;6.17;3.00;;;;;;;14.41;100.00;98620.06;7394125;19;20407;-44
2023/08/03 03:09:44;;;;;;;11.20;2.77;;;;;;;14.41;100.00;98625.25;7374618;19;20410;-44
2023/08/03 03:12:14;;;;;;;7.30;2.60;;;;;;;14.42;100.00;98624.38;7393161;19;20420;-45
2023/08/03 03:14:43;;;;;;;6.37;2.63;;;;;;;14.43;100.00;98620.94;7372299;19;20832;-46
2023/08/03 03:17:13;;;;;;;4.37;2.30;;;;;;;14.45;100.00;98619.19;7394641;19;20404;-43
2023/08/03 03:19:43;;;;;;;6.03;2.93;;;;;;;14.46;100.00;98609.66;7371870;19;21321;-44
2023/08/03 03:22:13;;;;;;;5.97;2.57;;;;;;;14.45;100.00;98619.19;7393929;19;20423;-46
2023/08/03 03:24:45;;;;;;;4.60;2.63;;;;;;;14.48;100.00;98610.53;7372337;19;20399;-44
2023/08/03 03:27:14;;;;;;;6.07;2.90;;;;;;;14.48;100.00;98617.44;7393090;19;20939;-46
2023/08/03 03:29:44;;;;;;;7.90;2.50;;;;;;;14.47;100.00;98621.78;7371485;19;20436;-46
2023/08/03 03:32:14;;;;;;;5.77;2.93;;;;;;;14.46;100.00;98625.22;7393182;19;20407;-48
2023/08/03 03:34:43;;;;;;;7.40;3.07;;;;;;;14.44;100.00;98633.03;7373758;19;20435;-47
2023/08/03 03:37:13;;;;;;;8.60;2.40;;;;;;;14.44;100.00;98627.84;7392542;19;21108;-46
2023/08/03 03:39:45;;;;;;;4.60;2.30;;;;;;;14.44;100.00;98625.25;7369983;19;20780;-44
2023/08/03 03:42:15;;;;;;;8.07;2.30;;;;;;;14.48;100.00;98617.44;7392624;19;20396;-45
2023/08/03 03:44:44;;;;;;;6.67;2.90;;;;;;;14.48;100.00;98614.84;7372047;19;20399;-45
2023/08/03 03:47:14;;;;;;;8.43;2.40;;;;;;;14.48;100.00;98607.06;7393147;19;20478;-46
2023/08/03 03:49:44;;;;;;;5.00;2.90;;;;;;;14.47;100.00;98613.13;7370609;19;21269;-45
2023/08/03 03:52:13;;;;;;;4.47;3.00;;;;;;;14.49;100.00;98608.78;7392965;19;20411;-48
2023/08/03 03:54:45;;;;;;;10.73;2.93;;;;;;;14.50;100.00;98611.34;7373725;19;20418;-43
2023/08/03 03:57:15;;;;;;;4.80;2.43;;;;;;;14.53;100.00;98610.47;7392939;19;20404;-44
2023/08/03 03:59:44;;;;;;;6.40;2.20;;;;;;;14.52;100.00;98607.00;7370746;19;20952;-43
2023/08/03 04:02:14;;;;;;;4.80;2.57;;;;;;;14.48;100.00;98607.94;7394292;19;20418;-46
2023/08/03 04:04:44;;;;;;;5.50;2.70;;;;;;;14.51;100.00;98607.03;7371498;19;20858;-47
2023/08/03 04:07:13;;;;;;;11.10;3.03;;;;;;;14.54;100.00;98614.78;7392934;19;20411;-44
2023/08/03 04:09:45;;;;;;;6.27;2.67;;;;;;;14.53;100.00;98600.09;7370862;19;20407;-45
2023/08/03 04:12:15;;;;;;;8.73;2.77;;;;;;;14.53;100.00;98600.97;7391432;19;20426;-46
2023/08/03 04:14:45;;;;;;;7.73;2.83;;;;;;;14.54;100.00;98601.81;7370974;19;20435;-44
2023/08/03 04:17:14;;;;;;;15.90;8.07;;;;;;;14.57;100.00;98601.81;7393857;19;20425;-48
2023/08/03 04:19:44;;;;;;;7.10;2.57;;;;;;;14.58;100.00;98603.53;7371363;19;20403;-46
2023/08/03 04:22:13;;;;;;;9.60;4.17;;;;;;;14.61;100.00;98610.41;7392218;19;20490;-44
2023/08/03 04:24:45;;;;;;;5.70;2.20;;;;;;;14.59;100.00;98613.00;7370898;19;20406;-43
2023/08/03 04:27:15;;;;;;;4.63;2.30;;;;;;;14.56;100.00;98606.13;7392720;19;20391;-44
2023/08/03 04:29:45;;;;;;;7.50;3.00;;;;;;;14.54;100.00;98614.78;7372011;19;20426;-43
2023/08/03 04:32:14;;;;;;;8.83;2.50;;;;;;;14.50;100.00;98607.94;7391488;19;20487;-48
2023/08/03 04:34:44;;;;;;;4.93;2.70;;;;;;;14.50;100.00;98608.75;7370711;19;20403;-47
2023/08/03 04:37:13;;;;;;;7.80;2.80;;;;;;;14.53;100.00;98613.94;7392735;19;20410;-45
2023/08/03 04:39:46;;;;;;;5.80;2.20;;;;;;;14.52;100.00;98613.94;7370269;19;20478;-43
2023/08/03 04:42:15;;;;;;;6.40;3.03;;;;;;;14.52;100.00;98619.97;7393544;19;20483;-46
2023/08/03 04:44:45;;;;;;;6.17;2.97;;;;;;;14.51;100.00;98625.22;7372123;19;20978;-46
2023/08/03 04:47:14;;;;;;;7.00;2.47;;;;;;;14.53;100.00;98620.84;7392363;19;20487;-48
2023/08/03 04:49:44;;;;;;;3.47;2.30;;;;;;;14.48;100.00;98623.50;7369478;19;20478;-47
2023/08/03 04:52:14;;;;;;;4.30;2.10;;;;;;;14.51;100.00;98623.44;7390185;19;20403;-46
2023/08/03 04:54:46;;;;;;;6.77;2.37;;;;;;;14.48;100.00;98623.50;7371900;19;20410;-46
2023/08/03 04:57:16;;;;;;;5.23;2.20;;;;;;;14.44;100.00;98622.66;7391962;19;20831;-47
2023/08/03 04:59:45;;;;;;;5.13;2.13;;;;;;;14.44;100.00;98621.78;7369781;19;20522;-44
2023/08/03 05:02:15;;;;;;;5.87;2.13;;;;;;;14.42;100.00;98624.38;7390957;19;20842;-44
2023/08/03 05:04:44;;;;;;;8.30;3.30;;;;;;;14.42;100.00;98624.38;7368962;19;20475;-47
2023/08/03 05:07:14;;;;;;;12.90;3.87;;;;;;;14.45;100.00;98616.59;7391816;19;20403;-45
2023/08/03 05:09:46;;;;;;;6.20;3.00;;;;;;;14.40;100.00;98602.78;7369562;19;20408;-45
2023/08/03 05:12:16;;;;;;;5.10;2.63;;;;;;;14.40;100.00;98600.19;7393566;19;20437;-45
2023/08/03 05:14:45;;;;;;;4.60;2.20;;;;;;;14.39;100.00;98600.22;7369291;19;20407;-47
2023/08/03 05:17:15;;;;;;;3.53;2.40;;;;;;;14.42;100.00;98598.44;7390806;19;20403;-45
2023/08/03 05:19:44;;;;;;;4.57;2.77;;;;;;;14.38;100.00;98594.19;7368807;19;20428;-44
2023/08/03 05:22:14;;;;;;;11.77;2.70;;;;;;;14.39;100.00;98595.91;7390076;19;20403;-44
2023/08/03 05:24:46;;;;;;;8.03;3.30;;;;;;;14.36;100.00;98601.09;7368786;19;20412;-46
2023/08/03 05:27:16;;;;;;;5.40;2.30;;;;;;;14.37;100.00;98595.06;7389462;19;20939;-48
2023/08/03 05:29:46;;;;;;;6.43;2.73;;;;;;;14.34;100.00;98596.78;7367986;19;20411;-43
2023/08/03 05:32:15;;;;;;;4.50;2.60;;;;;;;14.36;100.00;98592.47;7390053;19;20411;-43
2023/08/03 05:34:45;;;;;;;3.40;2.10;;;;;;;14.34;100.00;98594.19;7368545;19;20407;-45
2023/08/03 05:37:17;;;;;;;4.70;2.30;;;;;;;14.37;100.00;98592.47;7391234;19;20487;-46
2023/08/03 05:39:49;;;;;;;6.47;3.03;;;;;;;14.38;100.00;98596.78;7370503;19;20414;-43
2023/08/03 05:42:20;;;;;;;4.63;2.40;;;;;;;14.39;100.00;98588.09;7389735;19;20823;-44
2023/08/03 05:44:49;;;;;;;5.90;2.63;;;;;;;14.42;100.00;98593.25;7368555;19;20793;-44
2023/08/03 05:47:20;;;;;;;7.07;2.13;;;;;;;14.48;100.00;98599.28;7390788;19;20475;-46
2023/08/03 05:49:49;;;;;;;4.80;2.30;;;;;;;14.50;100.00;98602.72;7367550;19;20421;-46
2023/08/03 05:52:19;;;;;;;3.97;2.37;;;;;;;14.55;100.00;98598.34;7388668;19;20487;-44
2023/08/03 05:54:51;;;;;;;3.70;2.57;;;;;;;14.58;100.00;98598.31;7367714;19;20412;-42
2023/08/03 05:57:21;;;;;;;7.43;2.00;;;;;;;14.58;100.00;98595.72;7390309;19;20884;-46
2023/08/03 05:59:50;;;;;;;3.57;2.60;;;;;;;14.63;100.00;98603.47;7367713;19;20396;-43
2023/08/03 06:02:28;;;;;;;2.97;2.10;;;;;;;14.58;100.00;98608.72;7393361;19;20407;-44
2023/08/03 06:04:57;;;;;;;4.27;2.57;;;;;;;14.57;100.00;98613.03;7373589;19;20422;-43
2023/08/03 06:07:27;;;;;;;6.50;4.00;;;;;;;14.60;100.00;98617.31;7396585;19;20407;-41
2023/08/03 06:09:59;;;;;;;5.00;2.10;;;;;;;14.59;100.00;98613.00;7374323;19;20424;-46
2023/08/03 06:12:29;;;;;;;2.20;1.40;;;;;;;14.53;100.00;98610.47;7397081;19;20969;-43
2023/08/03 06:14:59;;;;;;;3.53;1.70;;;;;;;14.54;100.00;98620.84;7374197;19;20447;-42
2023/08/03 06:17:28;;;;;;;2.83;2.27;;;;;;;14.57;100.00;98619.97;7395392;19;20957;-44
2023/08/03 06:19:58;;;;;;;3.40;1.80;;;;;;;14.55;100.00;98619.09;7373237;19;20394;-43
2023/08/03 06:22:27;;;;;;;3.93;1.97;;;;;;;14.56;100.00;98626.88;7394892;19;20407;-43
2023/08/03 06:25:00;;;;;;;4.27;1.60;;;;;;;14.56;100.00;98641.59;7373582;19;20478;-45
2023/08/03 06:27:30;;;;;;;2.20;1.33;;;;;;;14.58;100.00;98645.03;7396023;19;20764;-45
2023/08/03 06:30:00;;;;;;;3.10;1.63;;;;;;;14.58;100.00;98637.25;7374250;19;20429;-41
2023/08/03 06:32:32;;;;;;;3.70;2.10;;;;;;;14.67;100.00;98650.13;7391900;19;20423;-42
2023/08/03 06:35:02;;;;;;;25.03;12.33;;;;;;;14.68;100.00;98645.81;7370481;19;20423;-45
2023/08/03 06:37:32;;;;;;;12.70;4.40;;;;;;;14.75;100.00;98651.81;7395666;19;20419;-43
2023/08/03 06:40:04;;;;;;;4.50;2.20;;;;;;;14.81;100.00;98652.66;7375302;19;21008;-43
2023/08/03 06:42:34;;;;;;;6.73;3.80;;;;;;;14.85;100.00;98643.97;7393319;19;21075;-43
2023/08/03 06:45:04;;;;;;;2.97;2.43;;;;;;;14.90;100.00;98645.63;7373424;19;20434;-45
2023/08/03 06:47:33;;;;;;;11.30;5.97;;;;;;;14.97;100.00;98645.56;7395001;19;20395;-43
2023/08/03 06:50:03;;;;;;;4.07;2.50;;;;;;;14.99;100.00;98650.75;7373266;19;20446;-43
2023/08/03 06:52:33;;;;;;;3.47;1.80;;;;;;;15.07;100.00;98654.13;7395504;19;20452;-43
2023/08/03 06:55:06;;;;;;;7.50;3.47;;;;;;;15.05;100.00;98649.81;7372840;19;20419;-42
2023/08/03 06:57:36;;;;;;;5.03;2.13;;;;;;;15.08;100.00;98644.63;7395007;19;20404;-43
2023/08/03 07:00:06;;;;;;;10.00;4.70;;;;;;;15.07;100.00;98650.69;7370641;19;20856;-41
2023/08/03 07:02:36;;;;;;;12.83;6.23;;;;;;;15.14;100.00;98657.53;7394147;19;20419;-43
2023/08/03 07:05:06;;;;;;;9.40;3.93;;;;;;;15.18;100.00;98660.97;7370674;19;20414;-43
2023/08/03 07:07:36;;;;;;;13.90;7.37;;;;;;;15.17;100.00;98682.63;7394388;19;20487;-43
2023/08/03 07:10:09;;;;;;;18.60;9.20;;;;;;;15.23;100.00;98683.41;7369159;19;20423;-43
2023/08/03 07:12:39;;;;;;;18.20;8.10;;;;;;;15.30;100.00;98685.94;7393404;19;20449;-43
2023/08/03 07:15:10;;;;;;;9.87;4.37;;;;;;;15.36;100.00;98680.66;7370410;19;20423;-43
2023/08/03 07:17:40;;;;;;;3.87;2.93;;;;;;;15.47;100.00;98693.53;7394526;19;20431;-43
2023/08/03 07:20:12;;;;;;;11.03;3.77;;;;;;;15.41;100.00;98697.06;7370940;19;20412;-43
2023/08/03 07:22:42;;;;;;;12.17;7.70;;;;;;;15.45;100.00;98695.28;7395772;19;20478;-44
2023/08/03 07:25:14;;;;;;;5.20;3.40;;;;;;;15.48;100.00;98695.28;7372192;19;20465;-43
2023/08/03 07:27:44;;;;;;;3.20;2.70;;;;;;;15.59;100.00;98713.34;7394578;19;20419;-43
2023/08/03 07:30:13;;;;;;;5.70;3.53;;;;;;;15.70;100.00;98711.47;7369829;19;20439;-43
2023/08/03 07:32:43;;;;;;;3.70;3.37;;;;;;;15.77;100.00;98710.53;7392051;19;20431;-43
2023/08/03 07:35:13;;;;;;;5.83;4.13;;;;;;;15.86;100.00;98711.28;7370446;19;21368;-43
2023/08/03 07:37:42;;;;;;;11.93;7.63;;;;;;;15.83;100.00;98711.34;7393278;19;20416;-43
2023/08/03 07:40:15;;;;;;;6.40;3.97;;;;;;;15.85;100.00;98704.38;7369581;19;20539;-42
2023/08/03 07:42:44;;;;;;;10.27;5.40;;;;;;;15.90;100.00;98707.78;7393166;19;20435;-43
2023/08/03 07:45:14;;;;;;;3.27;2.97;;;;;;;15.89;100.00;98727.69;7372210;19;20422;-45
2023/08/03 07:47:44;;;;;;;4.70;3.43;;;;;;;15.95;100.00;98741.53;7392571;19;20428;-43
2023/08/03 07:50:13;;;;;;;5.87;4.17;;;;;;;15.95;100.00;98739.81;7369708;19;20467;-42
2023/08/03 07:52:43;;;;;;;3.90;3.00;;;;;;;15.99;100.00;98754.47;7392817;19;20435;-42
2023/08/03 07:55:15;;;;;;;5.17;4.10;;;;;;;16.04;100.00;98755.28;7368901;19;20486;-42
2023/08/03 07:57:45;;;;;;;5.47;3.40;;;;;;;16.04;100.00;98759.63;7393438;19;20499;-42
2023/08/03 08:00:15;;;;;;;4.03;3.10;;;;;;;16.03;100.00;98761.38;7370571;19;20490;-42
2023/08/03 08:02:45;;;;;;;42.80;21.37;;;;;;;15.97;100.00;98773.59;7393014;19;20532;-42
2023/08/03 08:05:15;;;;;;;10.63;6.77;;;;;;;15.93;100.00;98759.75;7367545;19;20415;-45
2023/08/03 08:07:45;;;;;;;8.67;4.27;;;;;;;15.91;100.00;98757.13;7392998;19;20460;-42
2023/08/03 08:10:17;;;;;;;7.60;4.63;;;;;;;15.84;100.00;98759.84;7368945;19;20423;-44
2023/08/03 08:12:47;;;;;;;18.50;9.50;;;;;;;15.71;100.00;98760.00;7391687;19;20439;-42
2023/08/03 08:15:18;;;;;;;3.63;2.80;;;;;;;15.66;100.00;98764.38;7369959;19;20430;-41
2023/08/03 08:17:48;;;;;;;3.60;3.13;;;;;;;15.63;100.00;98772.19;7392998;19;20422;-42
2023/08/03 08:20:17;;;;;;;2.97;2.67;;;;;;;15.56;100.00;98778.34;7369396;19;20419;-43
2023/08/03 08:22:47;;;;;;;2.80;2.60;;;;;;;15.52;100.00;98773.19;7391753;19;20446;-43
2023/08/03 08:25:19;;;;;;;3.23;2.93;;;;;;;15.53;100.00;98774.03;7369043;19;20989;-42
2023/08/03 08:27:49;;;;;;;3.13;2.73;;;;;;;15.57;100.00;98782.66;7392388;19;20424;-42
2023/08/03 08:30:19;;;;;;;4.03;2.60;;;;;;;15.46;100.00;98778.44;7369416;19;20422;-42
2023/08/03 08:32:49;;;;;;;3.27;1.90;;;;;;;15.39;100.00;98775.03;7391904;19;20439;-43
2023/08/03 08:35:18;;;;;;;3.13;2.10;;;;;;;15.39;100.00;98775.03;7369142;19;20797;-42
2023/08/03 08:37:48;;;;;;;2.63;2.00;;;;;;;15.30;100.00;98775.13;7393862;19;20414;-44
2023/08/03 08:40:20;;;;;;;1.60;1.40;;;;;;;15.31;100.00;98784.63;7368315;19;20415;-43
2023/08/03 08:42:54;;;;;;;1.77;1.30;;;;;;;15.22;100.00;98782.97;7391073;19;21040;-45
2023/08/03 08:45:23;;;;;;;1.93;1.20;;;;;;;15.22;100.00;98780.38;7369857;19;20461;-42
2023/08/03 08:47:53;;;;;;;4.23;1.50;;;;;;;15.21;100.00;98783.00;7392435;19;20820;-43
2023/08/03 08:50:43;;;;;;;4.00;2.70;;;;;;;15.25;100.00;98789.88;7368702;19;20464;-42
2023/08/03 08:53:16;;;;;;;1.70;1.60;;;;;;;15.33;100.00;98805.41;7391625;19;20434;-44
2023/08/03 08:55:49;;;;;;;3.33;2.77;;;;;;;15.33;100.00;98806.25;7369171;19;20431;-45
2023/08/03 08:58:21;;;;;;;3.30;2.40;;;;;;;15.34;100.00;98800.19;7391268;19;20454;-44
2023/08/03 09:00:51;;;;;;;3.97;2.60;;;;;;;15.34;100.00;98813.16;7368609;19;20483;-43
2023/08/03 09:03:20;;;;;;;2.50;2.30;;;;;;;15.35;100.00;98812.31;7391921;19;20451;-42
2023/08/03 09:06:01;;;;;;;3.73;2.10;;;;;;;15.34;100.00;98814.94;7367730;19;20784;-42
2023/08/03 09:08:50;;;;;;;2.90;2.50;;;;;;;15.42;100.00;98820.91;7391838;19;20464;-43
2023/08/03 09:11:38;;;;;;;2.27;1.93;;;;;;;15.42;100.00;98818.31;7365610;19;20514;-42
2023/08/03 09:14:09;;;;;;;2.47;2.13;;;;;;;15.44;100.00;98819.16;7391083;19;20439;-42
2023/08/03 09:16:39;;;;;;;2.50;2.30;;;;;;;15.44;100.00;98819.16;7362286;19;20443;-42
2023/08/03 09:19:09;;;;;;;5.70;3.00;;;;;;;15.55;100.00;98815.59;7391318;19;20974;-42
2023/08/03 09:21:38;;;;;;;2.83;2.27;;;;;;;15.55;100.00;98819.06;7367321;19;20423;-42
2023/08/03 09:24:22;;;;;;;6.63;4.77;;;;;;;15.61;100.00;98820.75;7391474;19;20432;-42
2023/08/03 09:26:57;;;;;;;7.23;2.57;;;;;;;15.58;100.00;98813.00;7368184;19;20491;-41
2023/08/03 09:29:32;;;;;;;3.07;1.83;;;;;;;15.55;100.00;98810.41;7391614;19;20765;-42
2023/08/03 09:32:03;;;;;;;4.07;2.70;;;;;;;15.60;100.00;98816.41;7368884;19;20457;-43
2023/08/03 09:34:38;;;;;;;8.03;4.73;;;;;;;15.73;100.00;98825.81;7366711;19;20514;-42
2023/08/03 09:37:12;;;;;;;1.47;1.03;;;;;;;15.61;100.00;98813.81;7386123;19;21085;-42
2023/08/03 09:39:55;;;;;;;2.30;1.37;;;;;;;15.75;100.00;98829.25;7367550;19;20827;-42
2023/08/03 09:42:27;;;;;;;1.80;1.17;;;;;;;15.82;100.00;98834.38;7387679;19;20487;-44
2023/08/03 09:45:02;;;;;;;1.90;1.50;;;;;;;15.88;100.00;98821.31;7366365;19;20485;-43
2023/08/03 09:47:34;;;;;;;1.90;1.40;;;;;;;16.13;100.00;98834.09;7390019;19;20942;-43
2023/08/03 09:50:04;;;;;;;1.93;1.73;;;;;;;16.13;100.00;98847.09;7368611;19;20419;-42
2023/08/03 09:52:34;;;;;;;2.67;1.90;;;;;;;16.15;100.00;98847.94;7388374;19;20427;-41
2023/08/03 09:55:12;;;;;;;3.13;1.83;;;;;;;16.09;100.00;98848.03;7366457;19;20411;-41
2023/08/03 09:57:46;;;;;;;2.40;1.97;;;;;;;16.04;100.00;98872.34;7390063;19;20762;-41
2023/08/03 10:00:17;;;;;;;3.70;2.00;;;;;;;16.03;100.00;98881.03;7365408;19;20427;-41
2023/08/03 10:02:59;;;;;;;2.07;1.53;;;;;;;16.05;100.00;98881.84;7389203;19;20443;-42
2023/08/03 10:05:29;;;;;;;1.67;1.40;;;;;;;16.12;100.00;98887.00;7367226;19;20419;-42
2023/08/03 10:08:00;;;;;;;2.97;2.63;;;;;;;16.17;100.00;98885.22;7389956;19;20475;-42
2023/08/03 10:10:32;;;;;;;2.93;2.30;;;;;;;16.31;100.00;98875.50;7366981;19;20491;-42
2023/08/03 10:13:06;;;;;;;3.23;1.90;;;;;;;16.30;100.00;98873.78;7387669;19;20443;-42
2023/08/03 10:15:36;;;;;;;22.93;11.93;;;;;;;16.50;100.00;98885.69;7366239;19;20426;-45
2023/08/03 10:18:07;;;;;;;4.10;2.10;;;;;;;16.59;100.00;98906.41;7388480;19;20407;-47
2023/08/03 10:20:37;;;;;;;2.40;1.90;;;;;;;16.51;100.00;98918.63;7366499;19;20510;-41
2023/08/03 10:23:14;;;;;;;21.67;10.37;;;;;;;16.43;100.00;98926.56;7387708;19;20461;-46
2023/08/03 10:25:55;;;;;;;64.27;25.20;;;;;;;16.29;100.00;98939.72;7366107;19;20443;-42
2023/08/03 10:28:28;;;;;;;41.03;19.00;;;;;;;16.14;100.00;98940.72;7391285;19;20445;-43
2023/08/03 10:31:14;;;;;;;18.00;8.83;;;;;;;16.17;100.00;98964.13;7364582;19;20422;-42
2023/08/03 10:34:14;;;;;;;3.00;1.73;;;;;;;16.10;100.00;98972.00;7390236;19;20465;-42
2023/08/03 10:36:53;;;;;;;1.80;1.20;;;;;;;16.01;100.00;98991.16;7364287;19;20438;-51
2023/08/03 10:39:49;;;;;;;21.47;10.20;;;;;;;16.06;100.00;98990.22;7389595;19;20431;-45
2023/08/03 10:42:27;;;;;;;23.47;11.00;;;;;;;16.13;100.00;98995.38;7367110;19;20431;-46
2023/08/03 10:45:29;;;;;;;11.40;5.43;;;;;;;15.90;100.00;98994.66;7365771;19;20414;-45
2023/08/03 10:48:29;;;;;;;2.47;1.50;;;;;;;15.96;100.00;98992.91;7392885;19;20939;-43
2023/08/03 10:51:00;;;;;;;12.13;5.97;;;;;;;15.97;100.00;99005.03;7371169;19;20519;-46
2023/08/03 10:53:30;;;;;;;6.37;3.57;;;;;;;16.01;100.00;98997.19;7396286;19;20447;-45
2023/08/03 10:56:07;;;;;;;7.63;3.30;;;;;;;16.08;100.00;98997.13;7373148;19;20423;-45
2023/08/03 10:58:47;;;;;;;9.27;5.17;;;;;;;16.08;100.00;98989.34;7398807;19;20391;-44
2023/08/03 11:01:23;;;;;;;3.83;2.50;;;;;;;16.04;100.00;98999.78;7371082;19;20450;-43
2023/08/03 11:03:54;;;;;;;10.97;5.57;;;;;;;16.14;100.00;99004.88;7396245;19;20447;-44
2023/08/03 11:06:24;;;;;;;7.10;4.20;;;;;;;16.41;100.00;98992.50;7372010;19;20455;-46
2023/08/03 11:08:53;;;;;;;11.27;6.07;;;;;;;16.71;100.00;98995.63;7395326;19;20415;-43
2023/08/03 11:11:32;;;;;;;1.80;1.40;;;;;;;16.85;100.00;99004.16;7371206;19;20447;-46
2023/08/03 11:14:03;;;;;;;1.70;1.60;;;;;;;17.26;100.00;99016.72;7395692;19;20470;-49
2023/08/03 11:16:36;;;;;;;9.97;5.80;;;;;;;17.29;100.00;99006.25;7368701;19;20427;-41
2023/08/03 11:19:06;;;;;;;3.03;1.60;;;;;;;17.73;100.00;99018.66;7395850;19;20411;-42
2023/08/03 11:21:35;;;;;;;2.53;1.60;;;;;;;17.68;100.00;99036.97;7370537;19;20525;-43
2023/08/03 11:24:06;;;;;;;1.73;1.63;;;;;;;17.74;100.00;99038.66;7395230;19;20451;-43
2023/08/03 11:26:35;;;;;;;5.80;3.60;;;;;;;17.40;100.00;99051.25;7370415;19;20458;-41
2023/08/03 11:29:06;;;;;;;2.60;1.90;;;;;;;17.37;100.00;99071.28;7395472;19;20424;-45
2023/08/03 11:31:39;;;;;;;2.13;1.60;;;;;;;17.25;100.00;99067.09;7369043;19;20426;-43
2023/08/03 11:34:08;;;;;;;8.13;4.83;;;;;;;17.28;100.00;99077.50;7395062;19;20534;-43
2023/08/03 11:36:38;;;;;;;6.33;3.83;;;;;;;17.28;100.00;99088.78;7371231;19;20419;-43
2023/08/03 11:39:07;;;;;;;8.17;4.10;;;;;;;17.08;100.00;99102.03;7393357;19;20498;-43
2023/08/03 11:41:37;;;;;;;9.23;4.83;;;;;;;17.03;100.00;99101.25;7369009;19;20807;-42
2023/08/03 11:44:07;;;;;;;9.33;4.53;;;;;;;16.87;100.00;99109.19;7395138;19;20443;-43